createdAt,value
2018-07-16T00:00:19.058Z,74.60
2018-07-16T00:02:47.280Z,75.00
2018-07-16T00:05:15.550Z,75.40
2018-07-16T00:07:44.005Z,75.50
2018-07-16T00:10:12.296Z,76.20
2018-07-16T00:12:40.477Z,77.00
2018-07-16T00:15:08.764Z,77.20
2018-07-16T00:17:37.041Z,78.20
2018-07-16T00:20:05.483Z,78.30
2018-07-16T00:22:33.754Z,78.50
2018-07-16T00:25:02.174Z,78.70
2018-07-16T00:27:30.622Z,78.70
2018-07-16T00:29:58.861Z,79.10
2018-07-16T00:32:27.132Z,80.00
2018-07-16T00:34:55.429Z,80.10
2018-07-16T00:37:23.654Z,79.70
2018-07-16T00:39:51.932Z,80.60
2018-07-16T00:42:20.205Z,80.20
2018-07-16T00:44:48.480Z,80.70
2018-07-16T00:47:16.960Z,80.90
2018-07-16T00:49:45.232Z,81.00
2018-07-16T00:52:13.509Z,82.40
2018-07-16T00:54:41.854Z,81.20
2018-07-16T00:57:10.041Z,81.40
2018-07-16T00:59:38.243Z,80.80
2018-07-16T01:02:06.560Z,81.00
2018-07-16T01:04:34.795Z,81.00
2018-07-16T01:07:03.070Z,81.00
2018-07-16T01:09:31.330Z,81.10
2018-07-16T01:11:59.614Z,81.40
2018-07-16T01:14:27.889Z,81.60
2018-07-16T01:16:56.148Z,81.80
2018-07-16T01:19:24.443Z,82.00
2018-07-16T01:21:52.700Z,82.20
2018-07-16T01:24:20.900Z,82.30
2018-07-16T01:26:49.144Z,82.50
2018-07-16T01:29:17.350Z,82.60
2018-07-16T01:31:45.613Z,82.60
2018-07-16T01:34:13.893Z,82.80
2018-07-16T01:36:42.153Z,83.00
2018-07-16T01:39:10.432Z,83.30
2018-07-16T01:41:38.700Z,83.40
2018-07-16T01:44:06.893Z,83.60
2018-07-16T01:46:35.179Z,83.80
2018-07-16T01:49:03.455Z,84.70
2018-07-16T01:51:31.716Z,83.90
2018-07-16T01:53:59.988Z,84.30
2018-07-16T01:56:28.241Z,84.50
2018-07-16T01:58:56.436Z,84.80
2018-07-16T02:01:24.700Z,84.90
2018-07-16T02:03:52.899Z,85.00
2018-07-16T02:06:21.172Z,84.90
2018-07-16T03:24:47.400Z,85.30
2018-07-16T03:27:15.655Z,90.40
2018-07-16T03:29:43.916Z,90.50
2018-07-16T03:32:12.317Z,90.50
2018-07-16T03:34:40.586Z,90.60
2018-07-16T03:37:10.449Z,90.70
2018-07-16T03:39:38.676Z,90.70
2018-07-16T03:42:06.934Z,90.80
2018-07-16T03:44:35.253Z,90.90
2018-07-16T03:47:03.500Z,91.00
2018-07-16T03:49:31.777Z,90.90
2018-07-16T03:52:00.042Z,91.00
2018-07-16T03:54:28.386Z,91.00
2018-07-16T03:57:08.808Z,91.00
2018-07-16T03:59:37.066Z,91.10
2018-07-16T04:02:05.380Z,91.20
2018-07-16T04:04:33.609Z,91.20
2018-07-16T04:07:01.898Z,91.30
2018-07-16T04:09:30.215Z,91.40
2018-07-16T04:11:58.438Z,91.50
2018-07-16T04:14:26.692Z,91.50
2018-07-16T04:16:54.892Z,91.50
2018-07-16T04:19:23.071Z,91.60
2018-07-16T04:21:51.324Z,91.60
2018-07-16T04:24:20.049Z,91.70
2018-07-16T04:26:48.307Z,91.70
2018-07-16T04:29:16.560Z,91.80
2018-07-16T04:31:44.836Z,91.80
2018-07-16T04:34:13.021Z,91.80
2018-07-16T04:36:41.302Z,91.80
2018-07-16T04:39:09.702Z,91.90
2018-07-16T04:41:37.953Z,92.20
2018-07-16T04:44:06.208Z,92.20
2018-07-16T04:46:43.285Z,92.00
2018-07-16T04:49:11.488Z,92.00
2018-07-16T04:51:39.748Z,91.90
2018-07-16T04:54:08.023Z,91.80
2018-07-16T04:56:36.301Z,91.90
2018-07-16T04:59:04.828Z,91.90
2018-07-16T05:01:33.071Z,92.00
2018-07-16T05:04:01.317Z,92.00
2018-07-16T05:06:29.546Z,91.90
2018-07-16T05:08:57.794Z,91.90
2018-07-16T05:11:26.113Z,92.00
2018-07-16T05:13:54.457Z,91.70
2018-07-16T05:16:22.709Z,91.70
2018-07-16T05:18:51.027Z,91.90
2018-07-16T05:21:19.277Z,91.40
2018-07-16T05:23:47.944Z,91.00
2018-07-16T05:26:16.230Z,90.80
2018-07-16T05:28:44.497Z,90.50
2018-07-16T05:31:13.086Z,90.20
2018-07-16T05:33:41.348Z,89.90
2018-07-16T05:36:09.540Z,89.30
2018-07-16T05:38:38.416Z,88.90
2018-07-16T05:41:06.799Z,88.90
2018-07-16T05:43:35.100Z,88.60
2018-07-16T05:46:03.361Z,88.60
2018-07-16T05:48:31.689Z,87.30
2018-07-16T05:50:59.908Z,86.90
2018-07-16T05:53:28.182Z,87.40
2018-07-16T05:55:56.445Z,85.60
2018-07-16T05:58:28.367Z,85.00
2018-07-16T06:00:56.591Z,84.10
2018-07-16T06:03:24.779Z,83.70
2018-07-16T06:05:53.026Z,82.50
2018-07-16T06:08:21.228Z,82.20
2018-07-16T06:10:49.493Z,82.00
2018-07-16T06:13:17.760Z,82.00
2018-07-16T06:15:46.044Z,81.10
2018-07-16T06:18:14.372Z,81.10
2018-07-16T06:20:42.707Z,81.10
2018-07-16T06:23:10.979Z,80.50
2018-07-16T06:25:39.270Z,79.80
2018-07-16T06:28:07.525Z,79.00
2018-07-16T06:30:35.782Z,78.20
2018-07-16T06:33:04.063Z,78.20
2018-07-16T06:35:32.241Z,78.10
2018-07-16T06:38:00.428Z,77.70
2018-07-16T06:40:29.117Z,76.50
2018-07-16T06:42:57.288Z,76.00
2018-07-16T06:45:25.558Z,75.10
2018-07-16T06:47:53.920Z,75.40
2018-07-16T06:50:22.109Z,74.20
2018-07-16T06:52:50.437Z,73.80
2018-07-16T06:55:18.648Z,74.00
2018-07-16T06:57:46.828Z,73.80
2018-07-16T07:00:14.998Z,72.10
2018-07-16T07:02:43.226Z,71.90
2018-07-16T07:05:11.776Z,71.30
2018-07-16T07:07:40.049Z,70.00
2018-07-16T07:10:08.329Z,67.90
2018-07-16T07:12:36.498Z,67.00
2018-07-16T07:15:04.805Z,65.80
2018-07-16T07:17:33.053Z,66.20
2018-07-16T07:20:01.315Z,65.10
2018-07-16T07:22:29.615Z,65.30
2018-07-16T07:24:57.858Z,65.00
2018-07-16T07:27:26.041Z,63.60
2018-07-16T07:29:54.588Z,63.30
2018-07-16T07:32:22.825Z,63.40
2018-07-16T07:34:51.085Z,63.20
2018-07-16T07:37:19.465Z,62.70
2018-07-16T07:39:47.731Z,62.40
2018-07-16T07:42:16.011Z,63.10
2018-07-16T07:44:44.290Z,61.20
2018-07-16T07:47:12.558Z,61.30
2018-07-16T07:49:40.840Z,60.90
2018-07-16T07:52:09.128Z,59.20
2018-07-16T07:54:37.504Z,58.40
2018-07-16T07:57:05.983Z,57.80
2018-07-16T07:59:34.256Z,57.50
2018-07-16T08:02:02.541Z,57.40
2018-07-16T08:04:30.802Z,56.80
2018-07-16T08:07:05.896Z,56.90
2018-07-16T08:09:34.159Z,56.90
2018-07-16T08:12:03.293Z,55.90
2018-07-16T08:14:32.188Z,55.60
2018-07-16T08:17:00.423Z,56.10
2018-07-16T08:19:28.676Z,55.40
2018-07-16T08:21:56.971Z,55.10
2018-07-16T08:24:25.316Z,54.10
2018-07-16T08:26:53.565Z,53.90
2018-07-16T08:29:21.765Z,52.90
2018-07-16T08:31:50.012Z,52.30
2018-07-16T08:34:18.217Z,52.10
2018-07-16T08:36:46.483Z,52.20
2018-07-16T08:39:14.842Z,51.70
2018-07-16T08:41:43.016Z,52.10
2018-07-16T08:44:11.332Z,52.00
2018-07-16T08:46:39.577Z,51.10
2018-07-16T08:49:08.008Z,50.40
2018-07-16T08:51:36.240Z,50.30
2018-07-16T08:54:04.529Z,50.30
2018-07-16T08:56:32.781Z,49.20
2018-07-16T08:59:03.521Z,48.50
2018-07-16T09:01:31.793Z,49.00
2018-07-16T09:04:00.132Z,48.60
2018-07-16T09:06:28.327Z,48.70
2018-07-16T09:08:56.541Z,49.60
2018-07-16T09:11:24.803Z,49.10
2018-07-16T09:13:53.980Z,48.80
2018-07-16T09:18:50.143Z,46.70
2018-07-16T09:21:18.420Z,46.20
2018-07-16T09:23:46.697Z,45.60
2018-07-16T09:26:14.988Z,46.00
2018-07-16T09:28:43.322Z,45.20
2018-07-16T09:31:11.629Z,44.30
2018-07-16T09:33:40.031Z,44.20
2018-07-16T09:36:08.418Z,43.40
2018-07-16T09:38:36.665Z,43.60
2018-07-16T09:41:04.941Z,43.30
2018-07-16T09:43:33.301Z,42.90
2018-07-16T09:46:01.608Z,42.60
2018-07-16T09:48:30.397Z,42.20
2018-07-16T09:50:59.477Z,42.20
2018-07-16T09:53:28.518Z,41.20
2018-07-16T09:55:56.835Z,41.00
2018-07-16T09:58:25.743Z,41.10
2018-07-16T10:01:00.076Z,40.90
2018-07-16T10:03:28.368Z,39.50
2018-07-16T10:05:57.355Z,41.20
2018-07-16T10:08:26.642Z,40.70
2018-07-16T10:10:54.920Z,40.50
2018-07-16T10:13:23.191Z,40.80
2018-07-16T10:15:53.270Z,39.90
2018-07-16T10:18:22.399Z,40.60
2018-07-16T10:20:50.675Z,39.80
2018-07-16T10:23:30.145Z,39.70
2018-07-16T10:26:00.346Z,38.90
2018-07-16T10:28:30.211Z,38.40
2018-07-16T10:31:01.644Z,38.50
2018-07-16T10:33:30.665Z,38.90
2018-07-16T10:36:00.346Z,39.30
2018-07-16T10:38:28.825Z,39.40
2018-07-16T10:40:57.060Z,39.10
2018-07-16T10:43:30.922Z,38.40
2018-07-16T10:46:03.401Z,38.40
2018-07-16T10:48:36.429Z,37.50
2018-07-16T10:51:09.785Z,35.70
2018-07-16T10:53:46.549Z,36.10
2018-07-16T10:56:21.065Z,36.70
2018-07-16T10:58:52.683Z,36.90
2018-07-16T11:01:21.038Z,36.90
2018-07-16T11:03:49.370Z,37.30
2018-07-16T11:06:22.127Z,37.00
2018-07-16T11:08:51.301Z,35.70
2018-07-16T11:11:19.690Z,35.30
2018-07-16T11:13:48.160Z,36.00
2018-07-16T11:16:16.576Z,35.50
2018-07-16T11:18:45.055Z,35.20
2018-07-16T11:21:13.316Z,35.00
2018-07-16T11:23:44.182Z,35.60
2018-07-16T11:26:14.270Z,35.30
2018-07-16T11:28:47.805Z,35.10
2018-07-16T11:31:24.612Z,35.90
2018-07-16T11:33:59.679Z,36.00
2018-07-16T11:36:32.820Z,36.80
2018-07-16T11:39:09.285Z,36.60
2018-07-16T11:41:42.684Z,36.40
2018-07-16T11:44:10.893Z,36.00
2018-07-16T11:46:39.104Z,36.30
2018-07-16T11:49:07.390Z,35.40
2018-07-16T11:51:36.579Z,34.60
2018-07-16T11:54:07.052Z,34.10
2018-07-16T11:56:39.352Z,33.30
2018-07-16T11:59:12.122Z,33.90
2018-07-16T12:01:44.316Z,34.10
2018-07-16T12:04:15.792Z,34.80
2018-07-16T12:06:48.505Z,34.90
2018-07-16T12:09:20.382Z,34.70
2018-07-16T12:11:55.194Z,34.50
2018-07-16T12:14:28.298Z,34.20
2018-07-16T12:17:03.936Z,35.10
2018-07-16T12:19:35.377Z,34.30
2018-07-16T12:22:07.893Z,34.50
2018-07-16T12:24:39.913Z,34.80
2018-07-16T12:27:13.971Z,34.60
2018-07-16T12:29:47.083Z,33.80
2018-07-16T12:32:18.339Z,34.00
2018-07-16T12:34:54.022Z,33.70
2018-07-16T12:37:26.600Z,34.10
2018-07-16T12:39:57.140Z,33.70
2018-07-16T12:42:34.021Z,32.90
2018-07-16T12:45:07.466Z,34.40
2018-07-16T12:47:39.984Z,34.00
2018-07-16T12:50:10.206Z,34.10
2018-07-16T12:52:45.372Z,33.60
2018-07-16T12:55:18.592Z,33.50
2018-07-16T12:57:46.753Z,33.30
2018-07-16T13:00:14.956Z,32.90
2018-07-16T13:02:43.128Z,33.80
2018-07-16T13:05:17.717Z,33.30
2018-07-16T13:07:49.315Z,33.00
2018-07-16T13:10:21.870Z,33.30
2018-07-16T13:12:56.657Z,32.50
2018-07-16T13:15:30.297Z,33.20
2018-07-16T13:18:03.114Z,32.70
2018-07-16T13:20:37.575Z,32.80
2018-07-16T13:23:05.749Z,32.50
2018-07-16T13:25:41.627Z,32.20
2018-07-16T13:28:18.172Z,32.00
2018-07-16T13:30:53.175Z,31.70
2018-07-16T13:33:25.130Z,31.80
2018-07-16T13:36:00.856Z,31.50
2018-07-16T13:38:30.226Z,31.70
2018-07-16T13:41:05.169Z,31.10
2018-07-16T13:43:34.453Z,30.20
2018-07-16T13:46:07.405Z,30.30
2018-07-16T13:48:38.029Z,30.40
2018-07-16T13:51:13.100Z,30.50
2018-07-16T13:53:46.795Z,30.40
2018-07-16T13:56:17.686Z,29.70
2018-07-16T13:58:49.247Z,30.30
2018-07-16T14:01:21.688Z,29.50
2018-07-16T14:03:56.768Z,30.00
2018-07-16T14:06:24.974Z,29.90
2018-07-16T14:08:53.130Z,29.70
2018-07-16T14:11:21.375Z,30.00
2018-07-16T14:13:49.572Z,30.10
2018-07-16T14:16:17.772Z,30.30
2018-07-16T14:18:45.932Z,30.30
2018-07-16T14:21:14.129Z,30.90
2018-07-16T14:23:43.243Z,30.90
2018-07-16T14:26:11.439Z,30.80
2018-07-16T14:28:39.690Z,31.10
2018-07-16T14:31:07.942Z,30.80
2018-07-16T14:33:36.069Z,31.10
2018-07-16T14:36:05.011Z,31.40
2018-07-16T14:38:33.204Z,31.20
2018-07-16T14:41:01.902Z,31.40
2018-07-16T14:43:30.400Z,31.40
2018-07-16T14:45:58.551Z,31.60
2018-07-16T14:48:26.838Z,32.00
2018-07-16T14:50:55.012Z,32.10
2018-07-16T14:53:23.585Z,32.00
2018-07-16T14:55:52.042Z,31.40
2018-07-16T14:58:20.253Z,30.90
2018-07-16T15:00:48.420Z,31.30
2018-07-16T15:03:17.195Z,31.90
2018-07-16T15:05:46.503Z,32.40
2018-07-16T15:08:15.460Z,32.90
2018-07-16T15:10:43.706Z,33.00
2018-07-16T15:13:12.676Z,32.50
2018-07-16T15:15:41.441Z,32.40
2018-07-16T15:18:10.386Z,33.00
2018-07-16T15:20:39.479Z,32.90
2018-07-16T15:23:07.931Z,32.40
2018-07-16T15:25:36.105Z,32.40
2018-07-16T15:28:05.302Z,31.30
2018-07-16T15:30:33.889Z,31.00
2018-07-16T15:33:02.842Z,31.00
2018-07-16T15:35:31.678Z,31.30
2018-07-16T15:38:00.799Z,31.10
2018-07-16T15:40:29.141Z,30.10
2018-07-16T15:42:58.940Z,30.20
2018-07-16T15:45:28.707Z,30.80
2018-07-16T15:47:58.172Z,31.20
2018-07-16T15:50:27.026Z,31.00
2018-07-16T15:52:56.744Z,30.40
2018-07-16T15:55:27.133Z,30.50
2018-07-16T15:57:56.887Z,30.90
2018-07-16T16:00:25.846Z,31.20
2018-07-16T16:02:55.634Z,31.20
2018-07-16T16:05:30.855Z,31.40
2018-07-16T16:07:59.784Z,31.50
2018-07-16T16:10:28.267Z,30.90
2018-07-16T16:12:57.280Z,30.70
2018-07-16T16:15:26.314Z,30.40
2018-07-16T16:17:54.552Z,29.70
2018-07-16T16:20:23.119Z,29.80
2018-07-16T16:22:52.231Z,29.80
2018-07-16T16:25:20.546Z,29.50
2018-07-16T16:27:49.044Z,29.80
2018-07-16T16:30:17.446Z,30.00
2018-07-16T16:32:45.877Z,30.60
2018-07-16T16:35:15.824Z,29.80
2018-07-16T16:37:44.548Z,29.80
2018-07-16T16:40:12.863Z,30.70
2018-07-16T16:42:41.342Z,30.60
2018-07-16T16:45:10.114Z,30.00
2018-07-16T16:47:39.253Z,30.00
2018-07-16T16:50:08.446Z,29.80
2018-07-16T16:52:37.052Z,29.40
2018-07-16T16:55:05.271Z,28.80
2018-07-16T16:57:33.682Z,28.20
2018-07-16T17:00:02.242Z,27.80
2018-07-16T17:02:31.891Z,26.70
2018-07-16T17:05:00.312Z,26.40
2018-07-16T17:07:28.817Z,26.20
2018-07-16T17:09:57.720Z,26.10
2018-07-16T17:12:26.615Z,26.10
2018-07-16T17:14:55.025Z,25.90
2018-07-16T17:17:23.488Z,25.50
2018-07-16T17:19:52.468Z,25.50
2018-07-16T17:22:21.307Z,25.00
2018-07-16T17:24:49.524Z,24.90
2018-07-16T17:27:18.417Z,24.90
2018-07-16T17:29:47.136Z,24.80
2018-07-16T17:32:16.451Z,24.70
2018-07-16T17:34:44.974Z,24.00
2018-07-16T17:37:14.127Z,24.30
2018-07-16T17:39:43.497Z,24.30
2018-07-16T17:42:12.206Z,23.60
2018-07-16T17:44:40.687Z,24.50
2018-07-16T17:47:09.558Z,24.80
2018-07-16T17:49:38.953Z,25.00
2018-07-16T17:52:07.598Z,25.40
2018-07-16T17:54:36.068Z,26.80
2018-07-16T17:57:04.484Z,27.50
2018-07-16T17:59:32.962Z,27.70
2018-07-16T18:02:01.451Z,28.40
2018-07-16T18:04:29.633Z,29.20
2018-07-16T18:06:58.273Z,30.40
2018-07-16T18:09:26.440Z,30.10
2018-07-16T18:11:54.998Z,31.90
2018-07-16T18:14:23.369Z,31.30
2018-07-16T18:16:51.699Z,32.70
2018-07-16T18:19:19.881Z,31.90
2018-07-16T18:21:48.109Z,31.70
2018-07-16T18:24:16.284Z,31.90
2018-07-16T18:26:44.813Z,32.90
2018-07-16T18:29:13.303Z,32.90
2018-07-16T18:31:41.748Z,33.40
2018-07-16T18:34:10.215Z,33.70
2018-07-16T18:36:38.380Z,33.50
2018-07-16T18:39:08.211Z,34.20
2018-07-16T18:41:36.742Z,35.20
2018-07-16T18:44:05.134Z,36.10
2018-07-16T18:46:33.709Z,35.90
2018-07-16T18:49:01.877Z,36.30
2018-07-16T18:51:30.047Z,35.20
2018-07-16T18:53:58.237Z,35.90
2018-07-16T18:56:26.416Z,35.20
2018-07-16T18:58:54.608Z,35.50
2018-07-16T19:01:22.788Z,36.70
2018-07-16T19:03:50.959Z,37.30
2018-07-16T19:06:19.132Z,37.50
2018-07-16T19:08:47.295Z,38.10
2018-07-16T19:11:15.473Z,38.20
2018-07-16T19:13:43.642Z,38.30
2018-07-16T19:16:11.898Z,38.30
2018-07-16T19:18:40.064Z,38.10
2018-07-16T19:21:08.284Z,39.00
2018-07-16T19:23:36.453Z,38.90
2018-07-16T19:26:04.661Z,39.70
2018-07-16T19:28:32.975Z,39.60
2018-07-16T19:31:01.091Z,40.00
2018-07-16T19:33:29.276Z,40.80
2018-07-16T19:35:57.470Z,39.90
2018-07-16T19:38:25.710Z,41.20
2018-07-16T19:40:53.877Z,41.00
2018-07-16T19:43:22.045Z,41.30
2018-07-16T19:45:50.224Z,41.40
2018-07-16T19:48:18.405Z,40.50
2018-07-16T19:50:46.678Z,41.40
2018-07-16T19:53:14.805Z,41.70
2018-07-16T19:55:42.985Z,41.60
2018-07-16T19:58:11.208Z,41.80
2018-07-16T20:00:40.358Z,42.40
2018-07-16T20:03:09.384Z,43.20
2018-07-16T20:05:38.970Z,42.30
2018-07-16T20:08:08.662Z,43.90
2018-07-16T20:10:38.917Z,44.00
2018-07-16T20:13:07.770Z,44.70
2018-07-16T20:15:37.106Z,44.50
2018-07-16T20:18:06.408Z,45.70
2018-07-16T20:20:46.029Z,44.60
2018-07-16T20:23:15.676Z,45.10
2018-07-16T20:25:45.058Z,45.30
2018-07-16T20:28:16.558Z,45.60
2018-07-16T20:30:45.755Z,46.50
2018-07-16T20:33:15.358Z,46.70
2018-07-16T20:35:44.279Z,47.40
2018-07-16T20:38:17.453Z,47.90
2018-07-16T20:40:48.165Z,47.80
2018-07-16T20:43:17.562Z,47.70
2018-07-16T20:45:47.509Z,48.30
2018-07-16T20:48:18.370Z,48.90
2018-07-16T20:50:50.669Z,49.10
2018-07-16T20:53:21.740Z,48.90
2018-07-16T20:55:58.296Z,49.10
2018-07-16T20:58:28.004Z,49.00
2018-07-16T21:00:56.579Z,49.60
2018-07-16T21:03:29.018Z,49.30
2018-07-16T21:05:58.554Z,49.90
2018-07-16T21:08:28.086Z,49.60
2018-07-16T21:10:59.638Z,49.70
2018-07-16T21:13:28.702Z,50.40
2018-07-16T21:15:59.704Z,50.40
2018-07-16T21:21:09.074Z,51.60
2018-07-16T21:23:38.155Z,51.50
2018-07-16T21:26:06.480Z,52.10
2018-07-16T21:28:34.660Z,51.40
2018-07-16T21:31:04.977Z,51.70
2018-07-16T21:33:33.964Z,51.80
2018-07-16T21:36:02.172Z,51.80
2018-07-16T21:38:30.364Z,51.70
2018-07-16T21:40:58.674Z,51.90
2018-07-16T21:43:26.872Z,52.40
2018-07-16T21:45:55.512Z,53.70
2018-07-16T21:48:23.794Z,54.20
2018-07-16T21:50:52.006Z,55.00
2018-07-16T21:53:20.209Z,56.00
2018-07-16T21:55:48.444Z,56.70
2018-07-16T21:58:16.565Z,57.30
2018-07-16T22:00:44.801Z,58.00
2018-07-16T22:03:12.951Z,58.00
2018-07-16T22:05:41.153Z,58.00
2018-07-16T22:08:09.383Z,58.50
2018-07-16T22:10:37.579Z,58.00
2018-07-16T22:13:05.825Z,58.10
2018-07-16T22:15:34.012Z,58.10
2018-07-16T22:18:02.220Z,58.30
2018-07-16T22:20:30.415Z,58.60
2018-07-16T22:22:58.592Z,58.70
2018-07-16T22:25:27.042Z,59.00
2018-07-16T22:27:55.219Z,59.20
2018-07-16T22:30:23.380Z,59.60
2018-07-16T22:32:51.664Z,60.10
2018-07-16T22:35:19.925Z,59.90
2018-07-16T22:37:48.226Z,61.00
2018-07-16T22:40:16.420Z,60.70
2018-07-16T22:42:44.609Z,60.50
2018-07-16T22:45:13.272Z,60.20
2018-07-16T22:47:41.510Z,60.10
2018-07-16T22:50:09.716Z,60.30
2018-07-16T22:52:37.984Z,61.80
2018-07-16T22:55:06.161Z,60.70
2018-07-16T22:57:34.367Z,61.30
2018-07-16T23:00:02.536Z,61.70
2018-07-16T23:02:30.736Z,61.60
2018-07-16T23:04:58.925Z,61.50
2018-07-16T23:07:27.121Z,62.00
2018-07-16T23:09:55.905Z,62.70
2018-07-16T23:12:24.093Z,62.70
2018-07-16T23:14:52.269Z,62.60
2018-07-16T23:17:20.593Z,63.00
2018-07-16T23:19:48.765Z,63.50
2018-07-16T23:22:17.265Z,65.40
2018-07-16T23:24:45.532Z,64.90
2018-07-16T23:27:13.729Z,65.00
2018-07-16T23:29:42.002Z,65.50
2018-07-16T23:32:10.297Z,65.70
2018-07-16T23:34:38.473Z,66.70
2018-07-16T23:37:06.660Z,66.20
2018-07-16T23:39:35.001Z,66.40
2018-07-16T23:42:03.504Z,66.70
2018-07-16T23:44:31.678Z,67.30
2018-07-16T23:46:59.947Z,67.30
2018-07-16T23:49:28.190Z,67.80
2018-07-16T23:51:56.422Z,68.20
2018-07-16T23:54:24.667Z,68.80
2018-07-16T23:56:52.933Z,68.40
2018-07-16T23:59:21.514Z,68.80
